Terminal Aerodrome Forecast
Issued by NWS

Home | Current Version | Previous Version | Text Only | Print | Product List | Glossary On
Versions: 1 2 3 4 5 6 7 8 9 10 11 12 13 14 15 16 17 18 19 20 21 22 23 24 25 26 27 28 29 30 31 32 33 34 35 36 37 38 39 40 41 42
000
FTUS43 KMKX 111123
TAFUES
TAF
KUES 111123Z 1112/1212 15004KT 1SM -SN OVC010
     FM111600 17006KT 1 1/2SM -SN SCT008 OVC015
     FM112200 VRB03KT 3SM -SN OVC008
     FM120100 VRB03KT 5SM -SN OVC005
     FM120200 24004KT P6SM VCSH OVC008
     FM120600 28007KT P6SM OVC008
     FM120800 28009KT P6SM OVC010=

USA.gov is the U.S. government's official web portal to all federal, state and local government web resources and services.